sensor_id;sensor_type;location;lat;lon;timestamp;pressure;altitude;pressure_sealevel;temperature;humidity
58385;BME280;44185;47.844;8.966;2022-10-16T00:00:13;96156.16;;;10.06;100.00
58385;BME280;44185;47.844;8.966;2022-10-16T00:02:39;96164.34;;;10.03;100.00
58385;BME280;44185;47.844;8.966;2022-10-16T00:05:05;96154.41;;;9.95;100.00
58385;BME280;44185;47.844;8.966;2022-10-16T00:07:31;96157.63;;;9.98;100.00
58385;BME280;44185;47.844;8.966;2022-10-16T00:09:56;96151.38;;;9.99;100.00
58385;BME280;44185;47.844;8.966;2022-10-16T00:12:21;96153.63;;;10.04;100.00
58385;BME280;44185;47.844;8.966;2022-10-16T00:14:46;96140.59;;;10.12;100.00
58385;BME280;44185;47.844;8.966;2022-10-16T00:17:12;96160.63;;;10.15;100.00
58385;BME280;44185;47.844;8.966;2022-10-16T00:19:37;96161.09;;;10.20;100.00
58385;BME280;44185;47.844;8.966;2022-10-16T00:22:03;96170.03;;;10.29;100.00
58385;BME280;44185;47.844;8.966;2022-10-16T00:24:29;96163.56;;;10.22;100.00
58385;BME280;44185;47.844;8.966;2022-10-16T00:26:54;96160.50;;;10.17;100.00
58385;BME280;44185;47.844;8.966;2022-10-16T00:29:19;96158.63;;;10.29;100.00
58385;BME280;44185;47.844;8.966;2022-10-16T00:31:44;96155.38;;;10.25;100.00
58385;BME280;44185;47.844;8.966;2022-10-16T00:34:10;96163.50;;;10.33;100.00
58385;BME280;44185;47.844;8.966;2022-10-16T00:36:35;96158.78;;;10.37;100.00
58385;BME280;44185;47.844;8.966;2022-10-16T00:39:02;96167.84;;;10.34;100.00
58385;BME280;44185;47.844;8.966;2022-10-16T00:41:27;96164.03;;;10.27;100.00
58385;BME280;44185;47.844;8.966;2022-10-16T00:43:53;96160.25;;;10.20;100.00
58385;BME280;44185;47.844;8.966;2022-10-16T00:46:20;96156.91;;;10.18;100.00
58385;BME280;44185;47.844;8.966;2022-10-16T00:48:49;96165.53;;;10.20;100.00
58385;BME280;44185;47.844;8.966;2022-10-16T00:51:15;96164.97;;;10.16;100.00
58385;BME280;44185;47.844;8.966;2022-10-16T00:53:42;96160.16;;;10.31;100.00
58385;BME280;44185;47.844;8.966;2022-10-16T00:56:10;96154.59;;;10.34;100.00
58385;BME280;44185;47.844;8.966;2022-10-16T00:58:36;96155.81;;;10.30;100.00
58385;BME280;44185;47.844;8.966;2022-10-16T01:01:01;96169.59;;;10.24;100.00
58385;BME280;44185;47.844;8.966;2022-10-16T01:03:27;96165.28;;;10.23;100.00
58385;BME280;44185;47.844;8.966;2022-10-16T01:05:57;96159.84;;;10.24;100.00
58385;BME280;44185;47.844;8.966;2022-10-16T01:08:26;96157.06;;;10.26;100.00
58385;BME280;44185;47.844;8.966;2022-10-16T01:10:56;96157.47;;;10.21;100.00
58385;BME280;44185;47.844;8.966;2022-10-16T01:13:24;96159.72;;;10.26;100.00
58385;BME280;44185;47.844;8.966;2022-10-16T01:15:53;96161.81;;;10.32;100.00
58385;BME280;44185;47.844;8.966;2022-10-16T01:18:21;96174.94;;;10.34;100.00
58385;BME280;44185;47.844;8.966;2022-10-16T01:20:49;96178.44;;;10.44;100.00
58385;BME280;44185;47.844;8.966;2022-10-16T01:23:20;96178.88;;;10.50;100.00
58385;BME280;44185;47.844;8.966;2022-10-16T01:25:51;96177.66;;;10.54;100.00
58385;BME280;44185;47.844;8.966;2022-10-16T01:28:22;96179.63;;;10.52;100.00
58385;BME280;44185;47.844;8.966;2022-10-16T01:30:50;96171.22;;;10.46;100.00
58385;BME280;44185;47.844;8.966;2022-10-16T01:33:19;96181.69;;;10.48;100.00
58385;BME280;44185;47.844;8.966;2022-10-16T01:35:46;96191.53;;;10.46;100.00
58385;BME280;44185;47.844;8.966;2022-10-16T01:38:15;96185.34;;;10.57;100.00
58385;BME280;44185;47.844;8.966;2022-10-16T01:40:42;96193.03;;;10.60;100.00
58385;BME280;44185;47.844;8.966;2022-10-16T01:43:09;96186.19;;;10.57;100.00
58385;BME280;44185;47.844;8.966;2022-10-16T01:45:38;96187.44;;;10.53;100.00
58385;BME280;44185;47.844;8.966;2022-10-16T01:48:05;96189.09;;;10.54;100.00
58385;BME280;44185;47.844;8.966;2022-10-16T01:50:32;96194.53;;;10.53;100.00
58385;BME280;44185;47.844;8.966;2022-10-16T01:52:58;96193.53;;;10.54;100.00
58385;BME280;44185;47.844;8.966;2022-10-16T01:55:25;96190.22;;;10.62;100.00
58385;BME280;44185;47.844;8.966;2022-10-16T01:57:52;96184.94;;;10.62;100.00
58385;BME280;44185;47.844;8.966;2022-10-16T02:00:19;96183.94;;;10.53;100.00
58385;BME280;44185;47.844;8.966;2022-10-16T02:02:48;96181.69;;;10.48;100.00
58385;BME280;44185;47.844;8.966;2022-10-16T02:05:16;96184.59;;;10.45;100.00
58385;BME280;44185;47.844;8.966;2022-10-16T02:07:44;96180.13;;;10.45;100.00
58385;BME280;44185;47.844;8.966;2022-10-16T02:10:10;96173.09;;;10.56;100.00
58385;BME280;44185;47.844;8.966;2022-10-16T02:12:37;96181.41;;;10.51;100.00
58385;BME280;44185;47.844;8.966;2022-10-16T02:15:04;96188.25;;;10.54;100.00
58385;BME280;44185;47.844;8.966;2022-10-16T02:17:29;96196.06;;;10.55;100.00
58385;BME280;44185;47.844;8.966;2022-10-16T02:19:57;96192.97;;;10.50;100.00
58385;BME280;44185;47.844;8.966;2022-10-16T02:22:24;96193.22;;;10.47;100.00
58385;BME280;44185;47.844;8.966;2022-10-16T02:24:53;96187.22;;;10.45;100.00
58385;BME280;44185;47.844;8.966;2022-10-16T02:27:20;96183.53;;;10.57;100.00
58385;BME280;44185;47.844;8.966;2022-10-16T02:29:49;96185.75;;;10.52;100.00
58385;BME280;44185;47.844;8.966;2022-10-16T02:32:19;96196.81;;;10.46;100.00
58385;BME280;44185;47.844;8.966;2022-10-16T02:34:45;96186.81;;;10.50;100.00
58385;BME280;44185;47.844;8.966;2022-10-16T02:37:14;96179.16;;;10.46;100.00
58385;BME280;44185;47.844;8.966;2022-10-16T02:39:41;96174.56;;;10.49;100.00
58385;BME280;44185;47.844;8.966;2022-10-16T02:42:09;96177.88;;;10.41;100.00
58385;BME280;44185;47.844;8.966;2022-10-16T02:44:35;96185.00;;;10.40;100.00
58385;BME280;44185;47.844;8.966;2022-10-16T02:47:01;96182.06;;;10.43;100.00
58385;BME280;44185;47.844;8.966;2022-10-16T02:49:26;96187.56;;;10.52;100.00
58385;BME280;44185;47.844;8.966;2022-10-16T02:51:51;96180.00;;;10.47;100.00
58385;BME280;44185;47.844;8.966;2022-10-16T02:54:18;96172.25;;;10.55;100.00
58385;BME280;44185;47.844;8.966;2022-10-16T02:56:43;96179.72;;;10.50;100.00
58385;BME280;44185;47.844;8.966;2022-10-16T02:59:08;96174.31;;;10.52;100.00
58385;BME280;44185;47.844;8.966;2022-10-16T03:01:33;96166.38;;;10.52;100.00
58385;BME280;44185;47.844;8.966;2022-10-16T03:04:00;96168.91;;;10.53;100.00
58385;BME280;44185;47.844;8.966;2022-10-16T03:06:26;96170.16;;;10.59;100.00
58385;BME280;44185;47.844;8.966;2022-10-16T03:08:51;96174.34;;;10.62;100.00
58385;BME280;44185;47.844;8.966;2022-10-16T03:11:18;96175.19;;;10.62;100.00
58385;BME280;44185;47.844;8.966;2022-10-16T03:13:43;96181.16;;;10.54;100.00
58385;BME280;44185;47.844;8.966;2022-10-16T03:16:08;96180.47;;;10.52;100.00
58385;BME280;44185;47.844;8.966;2022-10-16T03:18:33;96179.03;;;10.48;100.00
58385;BME280;44185;47.844;8.966;2022-10-16T03:20:59;96183.59;;;10.46;100.00
58385;BME280;44185;47.844;8.966;2022-10-16T03:23:24;96186.53;;;10.43;100.00
58385;BME280;44185;47.844;8.966;2022-10-16T03:25:50;96184.25;;;10.38;100.00
58385;BME280;44185;47.844;8.966;2022-10-16T03:28:16;96191.06;;;10.31;100.00
58385;BME280;44185;47.844;8.966;2022-10-16T03:30:42;96201.63;;;10.31;100.00
58385;BME280;44185;47.844;8.966;2022-10-16T03:33:08;96207.69;;;10.43;100.00
58385;BME280;44185;47.844;8.966;2022-10-16T03:35:33;96206.91;;;10.52;100.00
58385;BME280;44185;47.844;8.966;2022-10-16T03:37:58;96217.50;;;10.52;100.00
58385;BME280;44185;47.844;8.966;2022-10-16T03:40:24;96204.47;;;10.39;100.00
58385;BME280;44185;47.844;8.966;2022-10-16T03:42:49;96206.41;;;10.37;100.00
58385;BME280;44185;47.844;8.966;2022-10-16T03:45:16;96200.78;;;10.30;100.00
58385;BME280;44185;47.844;8.966;2022-10-16T03:47:41;96200.03;;;10.18;100.00
58385;BME280;44185;47.844;8.966;2022-10-16T03:50:07;96200.00;;;10.08;100.00
58385;BME280;44185;47.844;8.966;2022-10-16T03:52:33;96206.94;;;10.09;100.00
58385;BME280;44185;47.844;8.966;2022-10-16T03:54:58;96201.69;;;10.19;100.00
58385;BME280;44185;47.844;8.966;2022-10-16T03:57:24;96206.28;;;10.17;100.00
58385;BME280;44185;47.844;8.966;2022-10-16T03:59:49;96210.19;;;10.13;100.00
58385;BME280;44185;47.844;8.966;2022-10-16T04:02:17;96207.28;;;10.16;100.00
58385;BME280;44185;47.844;8.966;2022-10-16T04:04:42;96220.41;;;10.06;100.00
58385;BME280;44185;47.844;8.966;2022-10-16T04:07:08;96213.91;;;10.10;100.00
58385;BME280;44185;47.844;8.966;2022-10-16T04:09:35;96215.31;;;10.15;100.00
58385;BME280;44185;47.844;8.966;2022-10-16T04:12:00;96211.72;;;10.16;100.00
58385;BME280;44185;47.844;8.966;2022-10-16T04:14:26;96213.28;;;10.18;100.00
58385;BME280;44185;47.844;8.966;2022-10-16T04:16:51;96222.31;;;10.16;100.00
58385;BME280;44185;47.844;8.966;2022-10-16T04:19:17;96211.31;;;10.20;100.00
58385;BME280;44185;47.844;8.966;2022-10-16T04:21:43;96212.16;;;10.21;100.00
58385;BME280;44185;47.844;8.966;2022-10-16T04:24:09;96210.94;;;10.25;100.00
58385;BME280;44185;47.844;8.966;2022-10-16T04:26:34;96219.44;;;10.29;100.00
58385;BME280;44185;47.844;8.966;2022-10-16T04:28:59;96227.78;;;10.24;100.00
58385;BME280;44185;47.844;8.966;2022-10-16T04:31:24;96225.13;;;10.24;100.00
58385;BME280;44185;47.844;8.966;2022-10-16T04:33:50;96224.22;;;10.35;100.00
58385;BME280;44185;47.844;8.966;2022-10-16T04:36:16;96224.22;;;10.35;100.00
58385;BME280;44185;47.844;8.966;2022-10-16T04:38:42;96219.44;;;10.29;100.00
58385;BME280;44185;47.844;8.966;2022-10-16T04:41:07;96222.50;;;10.24;100.00
58385;BME280;44185;47.844;8.966;2022-10-16T04:43:32;96234.88;;;10.23;100.00
58385;BME280;44185;47.844;8.966;2022-10-16T04:45:58;96224.75;;;10.29;100.00
58385;BME280;44185;47.844;8.966;2022-10-16T04:48:23;96223.44;;;10.23;100.00
58385;BME280;44185;47.844;8.966;2022-10-16T04:50:49;96223.69;;;10.20;100.00
58385;BME280;44185;47.844;8.966;2022-10-16T04:53:15;96224.28;;;10.23;100.00
58385;BME280;44185;47.844;8.966;2022-10-16T04:55:41;96231.69;;;10.30;100.00
58385;BME280;44185;47.844;8.966;2022-10-16T04:58:06;96228.94;;;10.31;100.00
58385;BME280;44185;47.844;8.966;2022-10-16T05:00:32;96230.03;;;10.29;100.00
58385;BME280;44185;47.844;8.966;2022-10-16T05:02:57;96232.09;;;10.25;100.00
58385;BME280;44185;47.844;8.966;2022-10-16T05:05:22;96231.25;;;10.24;100.00
58385;BME280;44185;47.844;8.966;2022-10-16T05:07:47;96228.03;;;10.21;100.00
58385;BME280;44185;47.844;8.966;2022-10-16T05:10:14;96232.19;;;10.14;100.00
58385;BME280;44185;47.844;8.966;2022-10-16T05:12:39;96228.53;;;10.15;100.00
58385;BME280;44185;47.844;8.966;2022-10-16T05:15:05;96239.31;;;10.23;100.00
58385;BME280;44185;47.844;8.966;2022-10-16T05:17:30;96239.72;;;10.18;100.00
58385;BME280;44185;47.844;8.966;2022-10-16T05:19:56;96244.34;;;10.26;100.00
58385;BME280;44185;47.844;8.966;2022-10-16T05:22:21;96243.31;;;10.17;100.00
58385;BME280;44185;47.844;8.966;2022-10-16T05:24:46;96237.91;;;10.19;100.00
58385;BME280;44185;47.844;8.966;2022-10-16T05:27:13;96241.75;;;10.15;100.00
58385;BME280;44185;47.844;8.966;2022-10-16T05:29:38;96245.41;;;10.14;100.00
58385;BME280;44185;47.844;8.966;2022-10-16T05:32:03;96241.00;;;10.24;100.00
58385;BME280;44185;47.844;8.966;2022-10-16T05:34:29;96241.13;;;10.22;100.00
58385;BME280;44185;47.844;8.966;2022-10-16T05:36:54;96245.31;;;10.25;100.00
58385;BME280;44185;47.844;8.966;2022-10-16T05:39:19;96254.78;;;10.28;100.00
58385;BME280;44185;47.844;8.966;2022-10-16T05:41:44;96250.19;;;10.30;100.00
58385;BME280;44185;47.844;8.966;2022-10-16T05:44:11;96256.66;;;10.37;100.00
58385;BME280;44185;47.844;8.966;2022-10-16T05:46:36;96255.81;;;10.37;100.00
58385;BME280;44185;47.844;8.966;2022-10-16T05:49:01;96245.50;;;10.33;100.00
58385;BME280;44185;47.844;8.966;2022-10-16T05:51:27;96249.63;;;10.26;100.00
58385;BME280;44185;47.844;8.966;2022-10-16T05:53:52;96252.72;;;10.31;100.00
58385;BME280;44185;47.844;8.966;2022-10-16T05:56:17;96259.13;;;10.29;100.00
58385;BME280;44185;47.844;8.966;2022-10-16T05:58:42;96260.22;;;10.26;100.00
58385;BME280;44185;47.844;8.966;2022-10-16T06:01:11;96258.69;;;10.23;100.00
58385;BME280;44185;47.844;8.966;2022-10-16T06:03:36;96252.94;;;10.18;100.00
58385;BME280;44185;47.844;8.966;2022-10-16T06:06:06;96257.25;;;10.19;100.00
58385;BME280;44185;47.844;8.966;2022-10-16T06:08:32;96260.47;;;10.23;100.00
58385;BME280;44185;47.844;8.966;2022-10-16T06:11:00;96260.66;;;10.31;100.00
58385;BME280;44185;47.844;8.966;2022-10-16T06:13:26;96261.69;;;10.40;100.00
58385;BME280;44185;47.844;8.966;2022-10-16T06:15:51;96270.34;;;10.42;100.00
58385;BME280;44185;47.844;8.966;2022-10-16T06:18:18;96270.09;;;10.45;100.00
58385;BME280;44185;47.844;8.966;2022-10-16T06:20:43;96262.72;;;10.49;100.00
58385;BME280;44185;47.844;8.966;2022-10-16T06:23:08;96270.66;;;10.49;100.00
58385;BME280;44185;47.844;8.966;2022-10-16T06:25:33;96281.22;;;10.49;100.00
58385;BME280;44185;47.844;8.966;2022-10-16T06:27:59;96289.56;;;10.44;100.00
58385;BME280;44185;47.844;8.966;2022-10-16T06:30:24;96286.53;;;10.49;100.00
58385;BME280;44185;47.844;8.966;2022-10-16T06:32:49;96292.66;;;10.50;100.00
58385;BME280;44185;47.844;8.966;2022-10-16T06:35:16;96291.31;;;10.55;100.00
58385;BME280;44185;47.844;8.966;2022-10-16T06:37:41;96297.72;;;10.53;100.00
58385;BME280;44185;47.844;8.966;2022-10-16T06:40:06;96298.03;;;10.60;100.00
58385;BME280;44185;47.844;8.966;2022-10-16T06:42:32;96302.81;;;10.66;100.00
58385;BME280;44185;47.844;8.966;2022-10-16T06:44:57;96314.94;;;10.68;100.00
58385;BME280;44185;47.844;8.966;2022-10-16T06:47:22;96320.09;;;10.70;100.00
58385;BME280;44185;47.844;8.966;2022-10-16T06:49:48;96311.03;;;10.73;100.00
58385;BME280;44185;47.844;8.966;2022-10-16T06:52:15;96319.34;;;10.89;100.00
58385;BME280;44185;47.844;8.966;2022-10-16T06:54:40;96320.19;;;10.90;100.00
58385;BME280;44185;47.844;8.966;2022-10-16T06:57:05;96329.03;;;11.00;100.00
58385;BME280;44185;47.844;8.966;2022-10-16T06:59:30;96324.00;;;11.07;100.00
58385;BME280;44185;47.844;8.966;2022-10-16T07:01:56;96324.28;;;11.04;100.00
58385;BME280;44185;47.844;8.966;2022-10-16T07:04:21;96333.06;;;11.05;100.00
58385;BME280;44185;47.844;8.966;2022-10-16T07:06:46;96335.03;;;11.12;100.00
58385;BME280;44185;47.844;8.966;2022-10-16T07:09:13;96345.13;;;11.19;100.00
58385;BME280;44185;47.844;8.966;2022-10-16T07:11:38;96344.69;;;11.14;100.00
58385;BME280;44185;47.844;8.966;2022-10-16T07:14:04;96351.25;;;11.19;100.00
58385;BME280;44185;47.844;8.966;2022-10-16T07:16:30;96357.69;;;11.27;100.00
58385;BME280;44185;47.844;8.966;2022-10-16T07:18:55;96356.75;;;11.38;100.00
58385;BME280;44185;47.844;8.966;2022-10-16T07:21:21;96357.38;;;11.51;100.00
58385;BME280;44185;47.844;8.966;2022-10-16T07:23:49;96345.81;;;11.62;100.00
58385;BME280;44185;47.844;8.966;2022-10-16T07:26:16;96354.47;;;11.74;100.00
58385;BME280;44185;47.844;8.966;2022-10-16T07:28:42;96353.09;;;11.90;100.00
58385;BME280;44185;47.844;8.966;2022-10-16T07:31:10;96358.28;;;12.01;100.00
58385;BME280;44185;47.844;8.966;2022-10-16T07:33:37;96360.09;;;12.11;100.00
58385;BME280;44185;47.844;8.966;2022-10-16T07:36:02;96373.13;;;12.14;100.00
58385;BME280;44185;47.844;8.966;2022-10-16T07:38:27;96378.28;;;12.26;100.00
58385;BME280;44185;47.844;8.966;2022-10-16T07:40:56;96385.81;;;12.40;100.00
58385;BME280;44185;47.844;8.966;2022-10-16T07:43:23;96391.53;;;12.55;100.00
58385;BME280;44185;47.844;8.966;2022-10-16T07:45:48;96387.47;;;12.61;100.00
58385;BME280;44185;47.844;8.966;2022-10-16T07:48:14;96393.19;;;12.66;100.00
58385;BME280;44185;47.844;8.966;2022-10-16T07:50:39;96394.72;;;12.69;100.00
58385;BME280;44185;47.844;8.966;2022-10-16T07:53:04;96389.28;;;12.71;100.00
58385;BME280;44185;47.844;8.966;2022-10-16T07:55:29;96395.16;;;12.74;100.00
58385;BME280;44185;47.844;8.966;2022-10-16T07:57:55;96388.72;;;12.77;100.00
58385;BME280;44185;47.844;8.966;2022-10-16T08:00:21;96391.25;;;12.78;100.00
58385;BME280;44185;47.844;8.966;2022-10-16T08:02:47;96395.56;;;12.79;100.00
58385;BME280;44185;47.844;8.966;2022-10-16T08:05:12;96397.09;;;12.82;100.00
58385;BME280;44185;47.844;8.966;2022-10-16T08:07:37;96402.69;;;12.89;100.00
58385;BME280;44185;47.844;8.966;2022-10-16T08:10:03;96408.25;;;12.96;100.00
58385;BME280;44185;47.844;8.966;2022-10-16T08:12:28;96412.03;;;13.03;100.00
58385;BME280;44185;47.844;8.966;2022-10-16T08:14:53;96412.44;;;13.08;100.00
58385;BME280;44185;47.844;8.966;2022-10-16T08:17:20;96406.25;;;13.18;100.00
58385;BME280;44185;47.844;8.966;2022-10-16T08:19:45;96417.28;;;13.23;100.00
58385;BME280;44185;47.844;8.966;2022-10-16T08:22:10;96411.41;;;13.19;100.00
58385;BME280;44185;47.844;8.966;2022-10-16T08:24:36;96415.16;;;13.27;100.00
58385;BME280;44185;47.844;8.966;2022-10-16T08:27:01;96407.72;;;13.30;100.00
58385;BME280;44185;47.844;8.966;2022-10-16T08:29:26;96423.34;;;13.43;100.00
58385;BME280;44185;47.844;8.966;2022-10-16T08:31:51;96427.69;;;13.44;100.00
58385;BME280;44185;47.844;8.966;2022-10-16T08:34:18;96434.78;;;13.54;100.00
58385;BME280;44185;47.844;8.966;2022-10-16T08:36:43;96434.78;;;13.64;100.00
58385;BME280;44185;47.844;8.966;2022-10-16T08:39:08;96441.88;;;13.73;100.00
58385;BME280;44185;47.844;8.966;2022-10-16T08:44:24;96446.25;;;13.93;100.00
58385;BME280;44185;47.844;8.966;2022-10-16T08:46:54;96445.91;;;14.06;100.00
58385;BME280;44185;47.844;8.966;2022-10-16T08:49:21;96446.81;;;14.15;100.00
58385;BME280;44185;47.844;8.966;2022-10-16T08:51:46;96444.56;;;14.20;100.00
58385;BME280;44185;47.844;8.966;2022-10-16T08:54:15;96448.00;;;14.30;100.00
58385;BME280;44185;47.844;8.966;2022-10-16T08:56:46;96452.63;;;14.28;100.00
58385;BME280;44185;47.844;8.966;2022-10-16T08:59:11;96451.19;;;14.34;100.00
58385;BME280;44185;47.844;8.966;2022-10-16T09:01:39;96451.56;;;14.39;100.00
58385;BME280;44185;47.844;8.966;2022-10-16T09:04:29;96453.47;;;14.47;100.00
58385;BME280;44185;47.844;8.966;2022-10-16T09:07:03;96442.69;;;14.49;100.00
58385;BME280;44185;47.844;8.966;2022-10-16T09:09:36;96462.09;;;14.59;100.00
58385;BME280;44185;47.844;8.966;2022-10-16T09:12:08;96460.19;;;14.70;100.00
58385;BME280;44185;47.844;8.966;2022-10-16T09:14:46;96453.41;;;14.75;100.00
58385;BME280;44185;47.844;8.966;2022-10-16T09:17:19;96462.00;;;14.69;100.00
58385;BME280;44185;47.844;8.966;2022-10-16T09:19:50;96463.13;;;14.85;100.00
58385;BME280;44185;47.844;8.966;2022-10-16T09:22:16;96467.00;;;15.09;100.00
58385;BME280;44185;47.844;8.966;2022-10-16T09:24:42;96475.25;;;15.24;100.00
58385;BME280;44185;47.844;8.966;2022-10-16T09:27:08;96468.31;;;15.31;100.00
58385;BME280;44185;47.844;8.966;2022-10-16T09:29:35;96479.72;;;15.42;100.00
58385;BME280;44185;47.844;8.966;2022-10-16T09:32:06;96481.81;;;15.56;100.00
58385;BME280;44185;47.844;8.966;2022-10-16T09:34:35;96475.00;;;15.62;100.00
58385;BME280;44185;47.844;8.966;2022-10-16T09:37:03;96481.91;;;15.73;100.00
58385;BME280;44185;47.844;8.966;2022-10-16T09:39:29;96478.63;;;15.88;100.00
58385;BME280;44185;47.844;8.966;2022-10-16T09:41:54;96473.00;;;15.99;100.00
58385;BME280;44185;47.844;8.966;2022-10-16T09:44:21;96471.09;;;16.18;100.00
58385;BME280;44185;47.844;8.966;2022-10-16T09:46:49;96468.47;;;16.27;100.00
58385;BME280;44185;47.844;8.966;2022-10-16T09:49:21;96473.16;;;16.41;100.00
58385;BME280;44185;47.844;8.966;2022-10-16T09:51:46;96471.84;;;16.62;100.00
58385;BME280;44185;47.844;8.966;2022-10-16T09:54:14;96472.19;;;16.76;100.00
58385;BME280;44185;47.844;8.966;2022-10-16T09:56:40;96459.50;;;16.78;100.00
58385;BME280;44185;47.844;8.966;2022-10-16T09:59:11;96464.84;;;16.95;100.00
58385;BME280;44185;47.844;8.966;2022-10-16T10:01:37;96458.00;;;17.09;100.00
58385;BME280;44185;47.844;8.966;2022-10-16T10:04:03;96462.69;;;16.98;100.00
58385;BME280;44185;47.844;8.966;2022-10-16T10:06:30;96465.69;;;16.95;100.00
58385;BME280;44185;47.844;8.966;2022-10-16T10:08:56;96478.72;;;17.07;100.00
58385;BME280;44185;47.844;8.966;2022-10-16T10:14:08;96477.19;;;17.12;100.00
58385;BME280;44185;47.844;8.966;2022-10-16T10:16:39;96478.59;;;17.17;100.00
58385;BME280;44185;47.844;8.966;2022-10-16T10:19:04;96474.38;;;17.22;100.00
58385;BME280;44185;47.844;8.966;2022-10-16T10:21:32;96469.72;;;17.33;100.00
58385;BME280;44185;47.844;8.966;2022-10-16T10:23:57;96468.69;;;17.17;100.00
58385;BME280;44185;47.844;8.966;2022-10-16T10:26:23;96469.38;;;17.11;100.00
58385;BME280;44185;47.844;8.966;2022-10-16T10:28:51;96469.22;;;17.21;100.00
58385;BME280;44185;47.844;8.966;2022-10-16T10:31:23;96458.50;;;17.29;100.00
58385;BME280;44185;47.844;8.966;2022-10-16T10:33:52;96469.66;;;17.41;100.00
58385;BME280;44185;47.844;8.966;2022-10-16T10:36:26;96456.63;;;17.47;100.00
58385;BME280;44185;47.844;8.966;2022-10-16T10:38:53;96456.25;;;17.58;100.00
58385;BME280;44185;47.844;8.966;2022-10-16T10:41:27;96459.06;;;17.73;100.00
58385;BME280;44185;47.844;8.966;2022-10-16T10:44:00;96461.69;;;17.90;100.00
58385;BME280;44185;47.844;8.966;2022-10-16T10:46:31;96458.44;;;18.03;97.81
58385;BME280;44185;47.844;8.966;2022-10-16T10:49:01;96461.09;;;18.11;98.74
58385;BME280;44185;47.844;8.966;2022-10-16T10:51:31;96459.25;;;18.12;98.41
58385;BME280;44185;47.844;8.966;2022-10-16T10:54:04;96457.88;;;18.16;97.20
58385;BME280;44185;47.844;8.966;2022-10-16T10:56:41;96456.38;;;18.14;98.71
58385;BME280;44185;47.844;8.966;2022-10-16T10:59:21;96455.81;;;18.35;95.92
58385;BME280;44185;47.844;8.966;2022-10-16T11:01:53;96464.97;;;18.41;95.91
58385;BME280;44185;47.844;8.966;2022-10-16T11:04:40;96459.69;;;18.56;96.00
58385;BME280;44185;47.844;8.966;2022-10-16T11:07:10;96453.19;;;18.74;91.86
58385;BME280;44185;47.844;8.966;2022-10-16T11:09:40;96444.09;;;18.83;90.25
58385;BME280;44185;47.844;8.966;2022-10-16T11:12:07;96449.22;;;19.08;90.94
58385;BME280;44185;47.844;8.966;2022-10-16T11:14:36;96448.34;;;19.16;90.19
58385;BME280;44185;47.844;8.966;2022-10-16T11:17:05;96446.03;;;19.13;87.90
58385;BME280;44185;47.844;8.966;2022-10-16T11:19:34;96437.53;;;19.25;89.49
58385;BME280;44185;47.844;8.966;2022-10-16T11:22:03;96431.81;;;19.28;87.34
58385;BME280;44185;47.844;8.966;2022-10-16T11:24:33;96436.81;;;19.31;85.09
58385;BME280;44185;47.844;8.966;2022-10-16T11:27:00;96435.53;;;19.42;87.48
58385;BME280;44185;47.844;8.966;2022-10-16T11:29:29;96431.09;;;19.34;84.05
58385;BME280;44185;47.844;8.966;2022-10-16T11:31:57;96416.66;;;19.50;83.17
58385;BME280;44185;47.844;8.966;2022-10-16T11:34:27;96417.38;;;19.59;82.41
58385;BME280;44185;47.844;8.966;2022-10-16T11:36:56;96414.19;;;19.64;79.83
58385;BME280;44185;47.844;8.966;2022-10-16T11:39:22;96410.00;;;19.61;79.86
58385;BME280;44185;47.844;8.966;2022-10-16T11:41:49;96411.75;;;19.54;83.44
58385;BME280;44185;47.844;8.966;2022-10-16T11:44:18;96416.75;;;19.57;86.71
58385;BME280;44185;47.844;8.966;2022-10-16T11:46:46;96411.59;;;19.55;85.69
58385;BME280;44185;47.844;8.966;2022-10-16T11:49:13;96412.28;;;19.64;84.60
58385;BME280;44185;47.844;8.966;2022-10-16T11:51:42;96404.63;;;19.61;85.10
58385;BME280;44185;47.844;8.966;2022-10-16T11:54:10;96406.19;;;19.71;85.13
58385;BME280;44185;47.844;8.966;2022-10-16T11:56:41;96404.53;;;19.85;85.84
58385;BME280;44185;47.844;8.966;2022-10-16T11:59:12;96415.69;;;19.88;83.83
58385;BME280;44185;47.844;8.966;2022-10-16T12:01:40;96410.25;;;19.82;83.41
58385;BME280;44185;47.844;8.966;2022-10-16T12:04:16;96405.44;;;19.92;83.41
58385;BME280;44185;47.844;8.966;2022-10-16T12:06:44;96407.56;;;19.82;82.36
58385;BME280;44185;47.844;8.966;2022-10-16T12:09:13;96402.03;;;19.68;82.19
58385;BME280;44185;47.844;8.966;2022-10-16T12:11:40;96402.22;;;19.82;84.11
58385;BME280;44185;47.844;8.966;2022-10-16T12:16:52;96402.25;;;20.04;80.37
58385;BME280;44185;47.844;8.966;2022-10-16T12:19:18;96388.00;;;20.03;81.62
58385;BME280;44185;47.844;8.966;2022-10-16T12:21:45;96390.84;;;20.01;82.42
58385;BME280;44185;47.844;8.966;2022-10-16T12:24:21;96391.91;;;20.00;80.13
58385;BME280;44185;47.844;8.966;2022-10-16T12:26:46;96394.84;;;20.06;80.84
58385;BME280;44185;47.844;8.966;2022-10-16T12:29:14;96395.03;;;20.04;78.49
58385;BME280;44185;47.844;8.966;2022-10-16T12:31:44;96384.13;;;19.90;80.14
58385;BME280;44185;47.844;8.966;2022-10-16T12:34:14;96387.28;;;19.94;78.19
58385;BME280;44185;47.844;8.966;2022-10-16T12:36:46;96381.53;;;19.97;80.62
58385;BME280;44185;47.844;8.966;2022-10-16T12:39:16;96385.13;;;20.05;80.42
58385;BME280;44185;47.844;8.966;2022-10-16T12:41:45;96387.88;;;20.11;77.42
58385;BME280;44185;47.844;8.966;2022-10-16T12:44:20;96382.06;;;20.08;77.45
58385;BME280;44185;47.844;8.966;2022-10-16T12:46:46;96383.19;;;19.98;80.50
58385;BME280;44185;47.844;8.966;2022-10-16T12:49:21;96377.88;;;20.05;80.45
58385;BME280;44185;47.844;8.966;2022-10-16T12:51:48;96377.44;;;20.01;82.62
58385;BME280;44185;47.844;8.966;2022-10-16T12:54:14;96384.28;;;20.04;83.61
58385;BME280;44185;47.844;8.966;2022-10-16T12:56:41;96381.59;;;20.04;82.55
58385;BME280;44185;47.844;8.966;2022-10-16T12:59:16;96388.91;;;20.10;81.19